Mount Airy, Georgia
Current Conditions -  °F | °C
As of 2:35 PM on Thursday 27 Nov 2014 (Local Time) from KTOC Reporting Station
Broken Clouds Broken Clouds  
Wind Chill: 42°   Ceiling: 5000
Heat Index: 47°   Visibility: 10mi
Dew Point: 25°   Wind: 12mph
Humidity: 42%   Direction: 310°NW
Pressure: 30.21"   Gusts: 18mph
Location:  34.52°N, 83.5°W
Report Text: KTOC 271935Z AUTO 31010G16KT 10SM BKN050 09/M04 A3021 RMK AO2 T00861038
Loading
Personal Weather Stations






























Interactive Weather Map New forecast layout! Learn more

10-Day Weather Forecast

Advertisements
Track Severe Weather on mobile